createdAt,value
2018-03-19T00:00:51.748Z,0.00
2018-03-19T00:01:51.759Z,0.00
2018-03-19T00:02:51.774Z,0.00
2018-03-19T00:03:51.792Z,0.00
2018-03-19T00:04:51.804Z,0.00
2018-03-19T00:05:51.820Z,0.00
2018-03-19T00:06:51.830Z,0.00
2018-03-19T00:07:51.850Z,0.00
2018-03-19T00:08:51.858Z,0.00
2018-03-19T00:09:51.888Z,0.00
2018-03-19T00:10:51.887Z,0.00
2018-03-19T00:11:51.901Z,0.00
2018-03-19T00:12:51.922Z,0.00
2018-03-19T00:13:51.932Z,0.00
2018-03-19T00:14:51.952Z,0.00
2018-03-19T00:15:51.963Z,0.00
2018-03-19T00:16:51.980Z,0.00
2018-03-19T00:17:52.002Z,0.00
2018-03-19T00:18:52.002Z,0.00
2018-03-19T00:19:52.023Z,0.00
2018-03-19T00:20:52.034Z,0.00
2018-03-19T00:21:52.047Z,0.00
2018-03-19T00:22:52.065Z,0.00
2018-03-19T00:23:52.081Z,0.00
2018-03-19T00:24:52.098Z,0.00
2018-03-19T00:25:52.104Z,0.00
2018-03-19T00:26:52.126Z,0.00
2018-03-19T00:27:52.152Z,0.00
2018-03-19T00:28:52.149Z,0.00
2018-03-19T00:29:52.172Z,0.00
2018-03-19T00:30:52.177Z,0.00
2018-03-19T00:31:52.192Z,0.00
2018-03-19T00:32:52.207Z,0.00
2018-03-19T00:33:52.224Z,0.00
2018-03-19T00:34:52.237Z,0.00
2018-03-19T00:35:52.255Z,0.00
2018-03-19T00:36:52.271Z,0.00
2018-03-19T00:37:52.288Z,0.00
2018-03-19T00:38:52.296Z,0.00
2018-03-19T00:39:52.311Z,0.00
2018-03-19T00:40:52.323Z,0.00
2018-03-19T00:41:52.340Z,0.00
2018-03-19T00:42:52.358Z,0.00
2018-03-19T00:43:52.366Z,0.00
2018-03-19T00:44:52.383Z,0.00
2018-03-19T00:45:52.396Z,0.00
2018-03-19T00:46:52.413Z,0.00
2018-03-19T00:47:52.426Z,0.00
2018-03-19T00:48:52.436Z,0.00
2018-03-19T00:49:52.456Z,0.00
2018-03-19T00:50:52.477Z,0.00
2018-03-19T00:51:52.485Z,0.00
2018-03-19T00:52:52.500Z,0.00
2018-03-19T00:53:52.510Z,0.00
2018-03-19T00:54:52.528Z,0.00
2018-03-19T00:55:52.541Z,0.00
2018-03-19T00:56:52.556Z,0.00
2018-03-19T00:57:52.566Z,0.00
2018-03-19T00:58:52.589Z,0.00
2018-03-19T00:59:52.600Z,0.00
2018-03-19T01:00:52.622Z,0.00
2018-03-19T01:01:52.625Z,0.00
2018-03-19T01:02:52.644Z,0.00
2018-03-19T01:03:52.653Z,0.00
2018-03-19T01:04:52.676Z,0.00
2018-03-19T01:05:52.689Z,0.00
2018-03-19T01:06:52.698Z,0.00
2018-03-19T01:07:52.712Z,0.00
2018-03-19T01:08:52.728Z,0.00
2018-03-19T01:09:52.740Z,0.00
2018-03-19T01:10:52.757Z,0.00
2018-03-19T01:11:52.767Z,0.00
2018-03-19T01:12:52.779Z,0.00
2018-03-19T01:13:52.798Z,0.00
2018-03-19T01:14:52.818Z,0.00
2018-03-19T01:15:52.824Z,0.00
2018-03-19T01:16:52.838Z,0.00
2018-03-19T01:17:52.853Z,0.00
2018-03-19T01:18:52.869Z,0.00
2018-03-19T01:19:53.136Z,0.00
2018-03-19T01:20:52.895Z,0.00
2018-03-19T01:21:52.909Z,0.00
2018-03-19T01:22:52.928Z,0.00
2018-03-19T01:23:52.937Z,0.00
2018-03-19T01:24:52.955Z,0.00
2018-03-19T01:25:52.972Z,0.00
2018-03-19T01:26:52.986Z,0.00
2018-03-19T01:27:52.998Z,0.00
2018-03-19T01:28:53.018Z,0.00
2018-03-19T01:29:53.028Z,0.00
2018-03-19T01:30:53.038Z,0.00
2018-03-19T01:31:53.058Z,0.00
2018-03-19T01:32:53.064Z,0.00
2018-03-19T01:33:53.082Z,0.00
2018-03-19T01:34:53.094Z,0.00
2018-03-19T01:35:53.108Z,0.00
2018-03-19T01:36:53.127Z,0.00
2018-03-19T01:37:53.133Z,0.00
2018-03-19T01:38:53.150Z,0.00
2018-03-19T01:39:53.163Z,0.00
2018-03-19T01:40:53.182Z,0.00
2018-03-19T01:41:53.192Z,0.00
2018-03-19T01:42:53.206Z,0.00
2018-03-19T01:43:53.226Z,0.00
2018-03-19T01:44:53.231Z,0.00
2018-03-19T01:45:53.250Z,0.00
2018-03-19T01:46:53.263Z,0.00
2018-03-19T01:47:53.273Z,0.00
2018-03-19T01:48:53.296Z,0.00
2018-03-19T01:49:53.303Z,0.00
2018-03-19T01:50:53.325Z,0.00
2018-03-19T01:51:53.331Z,0.00
2018-03-19T01:52:53.342Z,0.00
2018-03-19T01:53:53.360Z,0.00
2018-03-19T01:54:53.376Z,0.00
2018-03-19T01:55:53.387Z,0.00
2018-03-19T01:56:53.405Z,0.00
2018-03-19T01:57:53.420Z,0.00
2018-03-19T01:58:53.431Z,0.00
2018-03-19T01:59:53.447Z,0.00
2018-03-19T02:00:53.456Z,0.00
2018-03-19T02:01:53.470Z,0.00
2018-03-19T02:02:53.487Z,0.00
2018-03-19T02:03:53.500Z,0.00
2018-03-19T02:04:53.511Z,0.00
2018-03-19T02:05:53.527Z,0.00
2018-03-19T02:06:53.539Z,0.00
2018-03-19T02:07:53.556Z,0.00
2018-03-19T02:08:53.570Z,0.00
2018-03-19T02:09:53.589Z,0.00
2018-03-19T02:10:53.600Z,0.00
2018-03-19T02:11:53.614Z,0.00
2018-03-19T02:12:53.626Z,0.00
2018-03-19T02:13:53.641Z,0.00
2018-03-19T02:14:53.658Z,0.00
2018-03-19T02:15:53.671Z,0.00
2018-03-19T02:16:53.679Z,0.00
2018-03-19T02:17:53.700Z,0.00
2018-03-19T02:18:53.709Z,0.00
2018-03-19T02:19:53.730Z,0.00
2018-03-19T02:20:53.740Z,0.00
2018-03-19T02:21:53.749Z,0.00
2018-03-19T02:22:53.768Z,0.00
2018-03-19T02:23:53.785Z,0.00
2018-03-19T02:24:53.790Z,0.00
2018-03-19T02:25:53.803Z,0.00
2018-03-19T02:26:53.823Z,0.00
2018-03-19T02:27:53.842Z,0.00
2018-03-19T02:28:53.854Z,0.00
2018-03-19T02:29:53.862Z,0.00
2018-03-19T02:30:53.878Z,0.00
2018-03-19T02:31:53.892Z,0.00
2018-03-19T02:32:53.963Z,0.00
2018-03-19T02:33:53.965Z,0.00
2018-03-19T02:34:53.928Z,0.00
2018-03-19T02:35:53.951Z,0.00
2018-03-19T02:36:53.959Z,0.00
2018-03-19T02:37:53.974Z,0.00
2018-03-19T02:38:53.989Z,0.00
2018-03-19T02:39:54.003Z,0.00
2018-03-19T02:40:54.014Z,0.00
2018-03-19T02:41:54.029Z,0.00
2018-03-19T02:42:54.044Z,0.00
2018-03-19T02:43:54.060Z,0.00
2018-03-19T02:44:54.071Z,0.00
2018-03-19T02:45:54.086Z,0.00
2018-03-19T02:46:54.107Z,0.00
2018-03-19T02:47:54.108Z,0.00
2018-03-19T02:48:54.124Z,0.00
2018-03-19T02:49:54.138Z,0.00
2018-03-19T02:50:54.156Z,0.00
2018-03-19T02:51:54.171Z,0.00
2018-03-19T02:52:54.180Z,0.00
2018-03-19T02:53:54.192Z,0.00
2018-03-19T02:54:54.209Z,0.00
2018-03-19T02:55:54.227Z,0.00
2018-03-19T02:56:54.237Z,0.00
2018-03-19T02:57:54.249Z,0.00
2018-03-19T02:58:54.263Z,0.00
2018-03-19T02:59:54.280Z,0.00
2018-03-19T03:00:54.290Z,0.00
2018-03-19T03:01:54.304Z,0.00
2018-03-19T03:02:54.318Z,0.00
2018-03-19T03:03:54.333Z,0.00
2018-03-19T03:04:54.344Z,0.00
2018-03-19T03:05:54.358Z,0.00
2018-03-19T03:06:54.375Z,0.00
2018-03-19T03:07:54.391Z,0.00
2018-03-19T03:08:54.399Z,0.00
2018-03-19T03:09:54.417Z,0.00
2018-03-19T03:10:54.427Z,0.00
2018-03-19T03:11:54.740Z,0.00
2018-03-19T03:12:54.460Z,0.00
2018-03-19T03:13:54.474Z,0.00
2018-03-19T03:14:54.486Z,0.00
2018-03-19T03:15:54.497Z,0.00
2018-03-19T03:16:54.506Z,0.00
2018-03-19T03:17:54.524Z,0.00
2018-03-19T03:18:54.539Z,0.00
2018-03-19T03:19:54.549Z,0.00
2018-03-19T03:20:54.566Z,0.00
2018-03-19T03:21:54.579Z,0.00
2018-03-19T03:22:54.591Z,0.00
2018-03-19T03:23:54.606Z,0.00
2018-03-19T03:24:54.617Z,0.00
2018-03-19T03:25:54.637Z,0.00
2018-03-19T03:26:54.645Z,0.00
2018-03-19T03:27:54.662Z,0.00
2018-03-19T03:28:54.678Z,0.00
2018-03-19T03:29:54.687Z,0.00
2018-03-19T03:30:54.701Z,0.00
2018-03-19T03:31:54.721Z,0.00
2018-03-19T03:32:54.735Z,0.00
2018-03-19T03:33:54.741Z,0.00
2018-03-19T03:34:54.756Z,0.00
2018-03-19T03:35:54.770Z,0.00
2018-03-19T03:36:54.786Z,0.00
2018-03-19T03:37:54.797Z,0.00
2018-03-19T03:38:54.815Z,0.00
2018-03-19T03:39:54.825Z,0.00
2018-03-19T03:40:54.839Z,0.00
2018-03-19T03:41:54.849Z,0.00
2018-03-19T03:42:54.865Z,0.00
2018-03-19T03:43:54.880Z,0.00
2018-03-19T03:44:54.895Z,0.00
2018-03-19T03:45:54.912Z,0.00
2018-03-19T03:46:54.927Z,0.00
2018-03-19T03:47:54.934Z,0.00
2018-03-19T03:48:54.947Z,0.00
2018-03-19T03:49:54.965Z,0.00
2018-03-19T03:50:54.973Z,0.00
2018-03-19T03:51:54.991Z,0.00
2018-03-19T03:52:55.005Z,0.00
2018-03-19T03:53:55.013Z,0.00
2018-03-19T03:54:55.032Z,0.00
2018-03-19T03:55:55.043Z,0.00
2018-03-19T03:56:55.062Z,0.00
2018-03-19T03:57:55.077Z,0.00
2018-03-19T03:58:55.084Z,0.00
2018-03-19T03:59:55.098Z,0.00
2018-03-19T04:00:55.116Z,0.00
2018-03-19T04:01:55.123Z,0.00
2018-03-19T04:02:55.138Z,0.00
2018-03-19T04:03:55.153Z,0.00
2018-03-19T04:04:55.168Z,0.00
2018-03-19T04:05:55.184Z,0.00
2018-03-19T04:06:55.195Z,0.00
2018-03-19T04:07:55.208Z,0.00
2018-03-19T04:08:55.224Z,0.00
2018-03-19T04:09:55.234Z,0.00
2018-03-19T04:10:55.249Z,0.00
2018-03-19T04:11:55.262Z,0.00
2018-03-19T04:12:55.278Z,0.00
2018-03-19T04:13:55.288Z,0.00
2018-03-19T04:14:55.303Z,0.00
2018-03-19T04:15:55.316Z,0.00
2018-03-19T04:16:55.332Z,0.00
2018-03-19T04:17:55.343Z,0.00
2018-03-19T04:18:55.356Z,0.00
2018-03-19T04:19:55.377Z,0.00
2018-03-19T04:20:55.395Z,0.00
2018-03-19T04:21:55.400Z,0.00
2018-03-19T04:22:55.412Z,0.00
2018-03-19T04:23:55.426Z,0.00
2018-03-19T04:24:55.519Z,0.00
2018-03-19T04:25:55.457Z,0.00
2018-03-19T04:26:55.469Z,0.00
2018-03-19T04:27:55.482Z,0.00
2018-03-19T04:28:55.495Z,0.00
2018-03-19T04:29:55.517Z,0.00
2018-03-19T04:30:55.525Z,0.00
2018-03-19T04:31:55.536Z,0.00
2018-03-19T04:32:55.547Z,0.00
2018-03-19T04:33:55.566Z,0.00
2018-03-19T04:34:55.577Z,0.00
2018-03-19T04:35:55.593Z,0.00
2018-03-19T04:36:55.606Z,0.00
2018-03-19T04:37:55.627Z,0.00
2018-03-19T04:38:55.882Z,0.00
2018-03-19T04:39:55.650Z,0.00
2018-03-19T04:40:55.657Z,0.00
2018-03-19T04:41:55.672Z,0.00
2018-03-19T04:42:55.685Z,0.00
2018-03-19T04:43:55.704Z,4.00
2018-03-19T04:44:55.711Z,0.00
2018-03-19T04:45:55.725Z,0.00
2018-03-19T04:46:55.740Z,4.00
2018-03-19T04:47:55.755Z,0.00
2018-03-19T04:48:55.770Z,4.00
2018-03-19T04:49:55.780Z,4.00
2018-03-19T04:50:55.796Z,4.00
2018-03-19T04:51:55.808Z,4.00
2018-03-19T04:52:55.822Z,0.00
2018-03-19T04:53:55.837Z,0.00
2018-03-19T04:54:55.845Z,4.00
2018-03-19T04:55:55.866Z,4.00
2018-03-19T04:56:55.875Z,4.00
2018-03-19T04:57:55.892Z,4.00
2018-03-19T04:58:55.901Z,4.00
2018-03-19T04:59:55.917Z,4.00
2018-03-19T05:00:55.930Z,8.00
2018-03-19T05:01:55.943Z,8.00
2018-03-19T05:02:55.954Z,8.00
2018-03-19T05:03:55.973Z,12.00
2018-03-19T05:04:55.986Z,16.00
2018-03-19T05:05:55.994Z,16.00
2018-03-19T05:06:56.010Z,16.00
2018-03-19T05:07:56.024Z,20.00
2018-03-19T05:08:56.034Z,24.00
2018-03-19T05:09:56.055Z,32.00
2018-03-19T05:10:56.065Z,40.00
2018-03-19T05:11:56.079Z,44.00
2018-03-19T05:12:56.097Z,52.00
2018-03-19T05:13:56.111Z,60.00
2018-03-19T05:14:56.119Z,72.00
2018-03-19T05:15:56.133Z,76.00
2018-03-19T05:16:56.143Z,92.00
2018-03-19T05:17:56.160Z,104.00
2018-03-19T05:18:56.176Z,120.00
2018-03-19T05:19:56.182Z,140.00
2018-03-19T05:20:56.200Z,156.00
2018-03-19T05:21:56.222Z,180.00
2018-03-19T05:22:56.227Z,200.00
2018-03-19T05:23:56.239Z,228.00
2018-03-19T05:24:56.254Z,252.00
2018-03-19T05:25:56.272Z,280.00
2018-03-19T05:26:56.287Z,312.00
2018-03-19T05:27:56.297Z,344.00
2018-03-19T05:28:56.313Z,380.00
2018-03-19T05:29:56.319Z,416.00
2018-03-19T05:30:56.341Z,456.00
2018-03-19T05:31:56.354Z,496.00
2018-03-19T05:32:56.367Z,536.00
2018-03-19T05:33:56.378Z,580.00
2018-03-19T05:34:56.397Z,624.00
2018-03-19T05:35:56.403Z,672.00
2018-03-19T05:36:56.421Z,716.00
2018-03-19T05:37:56.430Z,764.00
2018-03-19T05:38:56.442Z,816.00
2018-03-19T05:39:56.458Z,860.00
2018-03-19T05:40:56.468Z,920.00
2018-03-19T05:41:56.492Z,968.00
2018-03-19T05:42:56.497Z,1004.00
2018-03-19T05:43:56.516Z,1072.00
2018-03-19T05:44:56.522Z,1128.00
2018-03-19T05:45:56.542Z,1176.00
2018-03-19T05:46:56.554Z,1232.00
2018-03-19T05:47:56.565Z,1284.00
2018-03-19T05:48:56.580Z,1336.00
2018-03-19T05:49:56.598Z,1388.00
2018-03-19T05:50:56.607Z,1440.00
2018-03-19T05:51:56.621Z,1488.00
2018-03-19T05:52:56.631Z,1540.00
2018-03-19T05:53:56.647Z,1592.00
2018-03-19T05:54:56.661Z,1640.00
2018-03-19T05:55:56.675Z,1688.00
2018-03-19T05:56:56.691Z,1736.00
2018-03-19T05:57:56.701Z,1784.00
2018-03-19T05:58:56.715Z,1832.00
2018-03-19T05:59:56.730Z,1880.00
2018-03-19T06:00:56.742Z,1924.00
2018-03-19T06:01:56.755Z,1968.00
2018-03-19T06:02:56.768Z,2012.00
2018-03-19T06:03:56.787Z,2056.00
2018-03-19T06:04:56.796Z,2096.00
2018-03-19T06:05:56.812Z,2140.00
2018-03-19T06:06:56.830Z,2176.00
2018-03-19T06:07:56.842Z,2220.00
2018-03-19T06:08:56.856Z,2260.00
2018-03-19T06:09:56.868Z,2296.00
2018-03-19T06:10:56.882Z,2304.00
2018-03-19T06:11:56.895Z,2372.00
2018-03-19T06:12:56.910Z,2408.00
2018-03-19T06:13:56.923Z,2448.00
2018-03-19T06:14:56.936Z,2480.00
2018-03-19T06:15:56.947Z,2516.00
2018-03-19T06:16:56.960Z,2548.00
2018-03-19T06:17:56.978Z,2580.00
2018-03-19T06:18:56.990Z,2612.00
2018-03-19T06:19:57.008Z,2648.00
2018-03-19T06:20:57.030Z,2680.00
2018-03-19T06:21:57.034Z,2712.00
2018-03-19T06:22:57.046Z,2740.00
2018-03-19T06:23:57.069Z,2772.00
2018-03-19T06:24:57.074Z,2800.00
2018-03-19T06:25:57.087Z,2824.00
2018-03-19T06:26:57.100Z,2856.00
2018-03-19T06:27:57.119Z,2884.00
2018-03-19T06:28:57.124Z,2912.00
2018-03-19T06:29:57.137Z,2936.00
2018-03-19T06:30:57.155Z,2960.00
2018-03-19T06:31:57.170Z,2988.00
2018-03-19T06:32:57.179Z,3012.00
2018-03-19T06:33:57.206Z,3036.00
2018-03-19T06:34:57.209Z,3060.00
2018-03-19T06:35:57.226Z,3084.00
2018-03-19T06:36:57.244Z,3104.00
2018-03-19T06:37:57.249Z,3128.00
2018-03-19T06:38:57.268Z,3148.00
2018-03-19T06:39:57.278Z,3168.00
2018-03-19T06:40:57.300Z,3188.00
2018-03-19T06:41:57.313Z,3212.00
2018-03-19T06:42:57.325Z,3232.00
2018-03-19T06:43:57.335Z,3256.00
2018-03-19T06:44:57.355Z,3272.00
2018-03-19T06:45:57.363Z,3288.00
2018-03-19T06:46:57.378Z,3308.00
2018-03-19T06:47:57.392Z,3324.00
2018-03-19T06:48:57.404Z,3348.00
2018-03-19T06:49:57.429Z,3360.00
2018-03-19T06:50:57.434Z,3380.00
2018-03-19T06:51:57.452Z,3400.00
2018-03-19T06:52:57.468Z,3412.00
2018-03-19T06:53:57.474Z,3432.00
2018-03-19T06:54:57.488Z,3432.00
2018-03-19T06:55:57.504Z,3464.00
2018-03-19T06:56:57.517Z,3480.00
2018-03-19T06:57:57.542Z,3496.00
2018-03-19T06:58:57.548Z,3516.00
2018-03-19T06:59:57.558Z,3532.00
2018-03-19T07:00:57.628Z,3552.00
2018-03-19T07:01:57.590Z,3564.00
2018-03-19T07:02:57.606Z,3576.00
2018-03-19T07:03:57.614Z,3596.00
2018-03-19T07:04:57.627Z,3608.00
2018-03-19T07:05:57.649Z,3624.00
2018-03-19T07:06:57.658Z,3640.00
2018-03-19T07:07:57.670Z,3652.00
2018-03-19T07:08:57.684Z,3668.00
2018-03-19T07:09:57.696Z,3680.00
2018-03-19T07:10:57.712Z,3696.00
2018-03-19T07:11:57.728Z,3704.00
2018-03-19T07:12:57.741Z,3720.00
2018-03-19T07:13:57.762Z,3736.00
2018-03-19T07:14:57.772Z,3748.00
2018-03-19T07:15:57.789Z,3764.00
2018-03-19T07:16:57.796Z,3772.00
2018-03-19T07:17:57.815Z,3784.00
2018-03-19T07:18:57.835Z,3800.00
2018-03-19T07:19:57.841Z,3812.00
2018-03-19T07:20:57.857Z,3828.00
2018-03-19T07:21:57.871Z,3844.00
2018-03-19T07:22:57.895Z,3848.00
2018-03-19T07:23:57.905Z,3860.00
2018-03-19T07:24:57.925Z,3876.00
2018-03-19T07:25:57.926Z,3888.00
2018-03-19T07:26:57.942Z,3900.00
2018-03-19T07:27:57.962Z,3908.00
2018-03-19T07:28:57.972Z,3916.00
2018-03-19T07:29:58.248Z,3928.00
2018-03-19T07:30:58.000Z,3940.00
2018-03-19T07:31:58.016Z,3964.00
2018-03-19T07:32:58.040Z,3968.00
2018-03-19T07:33:58.048Z,3960.00
2018-03-19T07:34:58.063Z,3980.00
2018-03-19T07:35:58.330Z,3992.00
2018-03-19T07:36:58.088Z,4004.00
2018-03-19T07:37:58.116Z,4032.00
2018-03-19T07:38:58.121Z,4024.00
2018-03-19T07:39:58.134Z,3996.00
2018-03-19T07:40:58.196Z,3964.00
2018-03-19T07:41:58.162Z,4052.00
2018-03-19T07:42:58.187Z,4056.00
2018-03-19T07:43:58.197Z,4068.00
2018-03-19T07:44:58.205Z,4080.00
2018-03-19T07:45:58.220Z,4084.00
2018-03-19T07:46:58.237Z,4100.00
2018-03-19T07:47:58.250Z,4116.00
2018-03-19T07:48:58.264Z,4116.00
2018-03-19T07:49:58.279Z,4124.00
2018-03-19T07:50:58.290Z,4136.00
2018-03-19T07:51:58.305Z,4136.00
2018-03-19T07:52:58.322Z,4072.00
2018-03-19T07:53:58.343Z,4148.00
2018-03-19T07:54:58.353Z,4152.00
2018-03-19T07:55:58.364Z,4164.00
2018-03-19T07:56:58.633Z,4180.00
2018-03-19T07:57:58.403Z,4184.00
2018-03-19T07:58:58.411Z,4196.00
2018-03-19T07:59:58.429Z,4200.00
2018-03-19T08:00:58.443Z,4204.00
2018-03-19T08:01:58.451Z,4216.00
2018-03-19T08:02:58.472Z,4220.00
2018-03-19T08:03:58.490Z,4216.00
2018-03-19T08:04:58.503Z,4228.00
2018-03-19T08:05:58.513Z,4236.00
2018-03-19T08:06:58.528Z,4236.00
2018-03-19T08:07:58.544Z,4248.00
2018-03-19T08:08:58.558Z,4256.00
2018-03-19T08:09:58.573Z,4264.00
2018-03-19T08:10:58.588Z,4268.00
2018-03-19T08:11:58.602Z,4280.00
2018-03-19T08:12:58.622Z,4276.00
2018-03-19T08:13:58.633Z,4296.00
2018-03-19T08:14:58.649Z,4296.00
2018-03-19T08:15:58.673Z,4368.00
2018-03-19T08:16:58.677Z,4304.00
2018-03-19T08:17:58.696Z,4312.00
2018-03-19T08:18:58.710Z,4320.00
2018-03-19T08:19:58.727Z,4332.00
2018-03-19T08:20:58.739Z,4336.00
2018-03-19T08:21:58.769Z,4360.00
2018-03-19T08:22:58.767Z,4332.00
2018-03-19T08:23:58.782Z,4320.00
2018-03-19T08:24:58.801Z,4356.00
2018-03-19T08:25:58.818Z,4384.00
2018-03-19T08:26:58.828Z,4376.00
2018-03-19T08:27:58.852Z,4376.00
2018-03-19T08:28:58.871Z,4388.00
2018-03-19T08:29:58.882Z,4384.00
2018-03-19T08:30:58.891Z,4356.00
2018-03-19T08:31:58.906Z,4412.00
2018-03-19T08:32:58.920Z,4432.00
2018-03-19T08:33:58.938Z,4408.00
2018-03-19T08:34:59.205Z,4428.00
2018-03-19T08:35:58.967Z,4436.00
2018-03-19T08:36:58.981Z,4440.00
2018-03-19T08:37:58.997Z,4456.00
2018-03-19T08:38:59.020Z,4444.00
2018-03-19T08:39:59.030Z,4448.00
2018-03-19T08:40:59.044Z,4456.00
2018-03-19T08:41:59.057Z,4468.00
2018-03-19T08:42:59.071Z,4472.00
2018-03-19T08:43:59.091Z,4516.00
2018-03-19T08:44:59.101Z,4480.00
2018-03-19T08:45:59.121Z,4508.00
2018-03-19T08:46:59.133Z,4520.00
2018-03-19T08:47:59.147Z,4520.00
2018-03-19T08:48:59.164Z,4524.00
2018-03-19T08:49:59.179Z,4540.00
2018-03-19T08:50:59.199Z,4544.00
2018-03-19T08:51:59.215Z,4524.00
2018-03-19T08:52:59.225Z,4564.00
2018-03-19T08:53:59.241Z,4568.00
2018-03-19T08:54:59.256Z,4588.00
2018-03-19T08:55:59.272Z,4596.00
2018-03-19T08:56:59.286Z,4600.00
2018-03-19T08:57:59.300Z,4600.00
2018-03-19T08:58:59.316Z,4596.00
2018-03-19T08:59:59.339Z,4612.00
2018-03-19T09:00:59.348Z,4624.00
2018-03-19T09:01:59.360Z,4652.00
2018-03-19T09:02:59.382Z,4640.00
2018-03-19T09:03:59.399Z,4644.00
2018-03-19T09:04:59.407Z,4732.00
2018-03-19T09:05:59.432Z,4652.00
2018-03-19T09:06:59.445Z,4692.00
2018-03-19T09:07:59.458Z,4660.00
2018-03-19T09:08:59.471Z,4672.00
2018-03-19T09:09:59.501Z,4680.00
2018-03-19T09:10:59.501Z,4700.00
2018-03-19T09:11:59.523Z,4708.00
2018-03-19T09:12:59.539Z,4708.00
2018-03-19T09:13:59.543Z,4740.00
2018-03-19T09:14:59.568Z,4720.00
2018-03-19T09:15:59.581Z,4736.00
2018-03-19T09:16:59.600Z,4740.00
2018-03-19T09:17:59.618Z,4744.00
2018-03-19T09:18:59.632Z,4744.00
2018-03-19T09:19:59.638Z,4768.00
2018-03-19T09:20:59.652Z,4788.00
2018-03-19T09:21:59.673Z,4812.00
2018-03-19T09:22:59.683Z,4852.00
2018-03-19T09:23:59.705Z,4804.00
2018-03-19T09:24:59.715Z,4820.00
2018-03-19T09:25:59.735Z,4832.00
2018-03-19T09:26:59.744Z,4848.00
2018-03-19T09:27:59.766Z,4872.00
2018-03-19T09:28:59.781Z,4876.00
2018-03-19T09:29:59.795Z,4920.00
2018-03-19T09:30:59.810Z,4900.00
2018-03-19T09:31:59.826Z,4916.00
2018-03-19T09:32:59.839Z,4928.00
2018-03-19T09:33:59.853Z,4948.00
2018-03-19T09:34:59.875Z,5012.00
2018-03-19T09:35:59.892Z,4956.00
2018-03-19T09:36:59.902Z,4956.00
2018-03-19T09:37:59.921Z,4972.00
2018-03-19T09:39:00.193Z,4992.00
2018-03-19T09:39:59.954Z,5004.00
2018-03-19T09:40:59.966Z,5024.00
2018-03-19T09:41:59.978Z,5028.00
2018-03-19T09:42:59.996Z,5056.00
2018-03-19T09:44:00.017Z,5048.00
2018-03-19T09:45:00.030Z,5056.00
2018-03-19T09:46:00.050Z,5164.00
2018-03-19T09:47:00.062Z,5084.00
2018-03-19T09:48:00.075Z,5096.00
2018-03-19T09:49:00.100Z,5108.00
2018-03-19T09:50:00.107Z,5120.00
2018-03-19T09:51:00.138Z,5128.00
2018-03-19T09:52:00.142Z,5144.00
2018-03-19T09:53:00.153Z,5156.00
2018-03-19T09:54:00.168Z,5172.00
2018-03-19T09:55:00.196Z,5292.00
2018-03-19T09:56:00.203Z,5192.00
2018-03-19T09:57:00.226Z,5204.00
2018-03-19T09:58:00.233Z,5268.00
2018-03-19T09:59:00.252Z,5232.00
2018-03-19T10:00:00.264Z,5244.00
2018-03-19T10:01:00.280Z,5252.00
2018-03-19T10:02:00.340Z,5272.00
2018-03-19T10:03:00.316Z,5280.00
2018-03-19T10:04:00.331Z,5308.00
2018-03-19T10:05:00.349Z,5328.00
2018-03-19T10:06:00.362Z,5332.00
2018-03-19T10:07:00.382Z,5360.00
2018-03-19T10:08:00.396Z,5380.00
2018-03-19T10:09:00.450Z,5388.00
2018-03-19T10:10:00.430Z,5400.00
2018-03-19T10:11:00.436Z,5612.00
2018-03-19T10:12:00.465Z,5416.00
2018-03-19T10:13:00.477Z,5432.00
2018-03-19T10:14:00.486Z,5424.00
2018-03-19T10:15:00.507Z,5432.00
2018-03-19T10:16:00.525Z,5428.00
2018-03-19T10:17:00.533Z,5528.00
2018-03-19T10:18:00.555Z,5496.00
2018-03-19T10:19:00.573Z,5564.00
2018-03-19T10:20:00.589Z,5544.00
2018-03-19T10:21:00.603Z,5572.00
2018-03-19T10:22:00.621Z,5616.00
2018-03-19T10:23:00.633Z,5620.00
2018-03-19T10:24:00.658Z,5656.00
2018-03-19T10:25:00.671Z,5708.00
2018-03-19T10:26:00.682Z,5748.00
2018-03-19T10:27:00.701Z,5788.00
2018-03-19T10:28:00.718Z,5852.00
2018-03-19T10:29:00.737Z,5924.00
2018-03-19T10:30:00.747Z,5996.00
2018-03-19T10:31:00.770Z,6104.00
2018-03-19T10:32:00.780Z,6140.00
2018-03-19T10:33:00.794Z,6236.00
2018-03-19T10:34:00.817Z,6304.00
2018-03-19T10:35:00.831Z,6348.00
2018-03-19T10:36:00.845Z,6380.00
2018-03-19T10:37:00.861Z,6404.00
2018-03-19T10:38:00.876Z,6432.00
2018-03-19T10:39:00.898Z,6472.00
2018-03-19T10:40:00.947Z,6544.00
2018-03-19T10:41:00.928Z,6588.00
2018-03-19T10:42:00.954Z,6680.00
2018-03-19T10:43:00.961Z,6832.00
2018-03-19T10:44:00.978Z,7048.00
2018-03-19T10:45:00.994Z,7308.00
2018-03-19T10:46:01.010Z,7708.00
2018-03-19T10:47:01.028Z,8204.00
2018-03-19T10:48:01.046Z,8744.00
2018-03-19T10:49:01.064Z,9304.00
2018-03-19T10:50:01.079Z,10008.00
2018-03-19T10:51:01.092Z,10648.00
2018-03-19T10:52:01.117Z,11248.00
2018-03-19T10:53:01.189Z,11980.00
2018-03-19T10:54:01.145Z,12716.00
2018-03-19T10:55:01.168Z,13524.00
2018-03-19T10:56:01.179Z,14168.00
2018-03-19T10:57:01.202Z,15096.00
2018-03-19T10:58:01.212Z,16052.00
2018-03-19T10:59:01.236Z,17072.00
2018-03-19T11:00:01.253Z,18560.00
2018-03-19T11:01:01.263Z,20224.00
2018-03-19T11:02:01.279Z,22304.00
2018-03-19T11:03:01.303Z,25088.00
2018-03-19T11:05:01.338Z,29856.00
2018-03-19T11:06:01.349Z,30752.00
2018-03-19T11:07:01.375Z,31616.00
2018-03-19T11:08:01.390Z,32384.00
2018-03-19T11:09:01.411Z,33248.00
2018-03-19T11:10:01.429Z,33568.00
2018-03-19T11:11:01.448Z,33888.00
2018-03-19T11:12:01.547Z,34528.00
2018-03-19T11:13:01.492Z,35008.00
2018-03-19T11:14:01.516Z,35520.00
2018-03-19T11:15:01.531Z,36032.00
2018-03-19T11:16:01.553Z,36192.00
2018-03-19T11:17:01.597Z,36448.00
2018-03-19T11:18:01.626Z,36992.00
2018-03-19T11:19:01.661Z,37536.00
2018-03-19T11:20:01.704Z,38144.00
2018-03-19T11:21:01.658Z,38656.00
2018-03-19T11:22:01.684Z,38880.00
2018-03-19T11:23:01.755Z,38944.00
2018-03-19T11:24:01.732Z,39072.00
2018-03-19T11:25:01.759Z,39296.00
2018-03-19T11:26:01.784Z,39584.00
2018-03-19T11:27:01.804Z,40096.00
2018-03-19T11:28:01.829Z,40832.00
2018-03-19T11:29:01.861Z,41408.00
2018-03-19T11:30:01.884Z,42080.00
2018-03-19T11:31:01.909Z,42304.00
2018-03-19T11:32:01.939Z,42816.00
2018-03-19T11:33:01.959Z,43136.00
2018-03-19T11:34:01.987Z,42848.00
2018-03-19T11:35:02.013Z,43648.00
2018-03-19T11:36:02.039Z,44256.00
2018-03-19T11:37:02.068Z,44288.00
2018-03-19T11:38:02.096Z,44544.00
2018-03-19T11:39:02.123Z,44000.00
2018-03-19T11:40:02.159Z,44800.00
2018-03-19T11:41:02.181Z,44896.00
2018-03-19T11:42:02.203Z,45984.00
2018-03-19T11:43:02.236Z,47072.00
2018-03-19T11:44:02.265Z,48128.00
2018-03-19T11:45:02.292Z,49536.00
2018-03-19T11:46:02.320Z,51456.00
2018-03-19T11:47:02.348Z,52736.00
2018-03-19T11:48:02.378Z,53024.00
2018-03-19T11:49:02.402Z,53600.00
2018-03-19T11:50:02.440Z,55552.00
2018-03-19T11:51:02.464Z,55936.00
2018-03-19T11:52:02.493Z,57120.00
2018-03-19T11:53:02.520Z,57824.00
2018-03-19T11:54:02.553Z,58400.00
2018-03-19T11:55:02.584Z,58976.00
2018-03-19T11:56:02.613Z,59392.00
2018-03-19T11:57:02.644Z,58688.00
2018-03-19T11:58:02.689Z,59616.00
2018-03-19T11:59:02.702Z,61664.00
2018-03-19T12:00:02.737Z,61408.00
2018-03-19T12:01:02.772Z,60960.00
2018-03-19T12:02:02.795Z,62304.00
2018-03-19T12:03:02.824Z,64448.00
2018-03-19T12:04:02.864Z,65280.00
2018-03-19T12:05:02.880Z,64224.00
2018-03-19T12:06:02.913Z,66048.00
2018-03-19T12:07:02.946Z,69856.00
2018-03-19T12:08:02.977Z,68768.00
2018-03-19T12:09:03.011Z,62976.00
2018-03-19T12:10:03.042Z,61024.00
2018-03-19T12:11:03.073Z,59776.00
2018-03-19T12:12:03.100Z,58368.00
2018-03-19T12:13:03.138Z,57600.00
2018-03-19T12:14:03.167Z,54528.00
2018-03-19T12:15:03.197Z,54176.00
2018-03-19T12:16:03.225Z,52480.00
2018-03-19T12:17:03.258Z,49408.00
2018-03-19T12:18:03.294Z,51936.00
2018-03-19T12:19:03.330Z,53376.00
2018-03-19T12:20:03.350Z,52032.00
2018-03-19T12:21:03.392Z,54400.00
2018-03-19T12:22:03.411Z,58432.00
2018-03-19T12:23:03.446Z,61792.00
2018-03-19T12:24:03.477Z,66176.00
2018-03-19T12:25:03.510Z,71776.00
2018-03-19T12:26:03.541Z,75168.00
2018-03-19T12:27:03.573Z,78752.00
2018-03-19T12:28:03.613Z,78400.00
2018-03-19T12:29:03.644Z,75680.00
2018-03-19T12:30:03.674Z,73280.00
2018-03-19T12:31:03.705Z,72832.00
2018-03-19T12:32:03.740Z,73920.00
2018-03-19T12:33:03.769Z,74560.00